Time;durP1;ratioP1;P1;durP2;ratioP2;P2;SDS_P1;SDS_P2;PMS_P1;PMS_P2;Temp;Humidity;BMP_temperature;BMP_pressure;BME280_temperature;BME280_humidity;BME280_pressure;Samples;Min_cycle;Max_cycle;Signal;HPM_P1;HPM_P2
2022/05/13 00:01:07;;;;;;;4.15;1.17;;;;;;;8.40;69.41;99458.19;1609066;87;21120;-60
2022/05/13 00:03:34;;;;;;;5.25;2.00;;;;;;;8.38;69.39;99454.80;1626683;86;21672;-59
2022/05/13 00:06:01;;;;;;;5.85;1.42;;;;;;;8.37;69.57;99458.30;1635832;87;21588;-61
2022/05/13 00:08:28;;;;;;;2.60;1.20;;;;;;;8.40;69.63;99466.00;1631430;87;21554;-59
2022/05/13 00:10:56;;;;;;;4.53;1.40;;;;;;;8.39;69.62;99459.11;1592513;87;21526;-59
2022/05/13 00:13:22;;;;;;;6.42;1.75;;;;;;;8.39;69.68;99459.11;1594810;88;26698;-59
2022/05/13 00:15:49;;;;;;;4.57;1.40;;;;;;;8.40;69.77;99450.39;1583952;89;21157;-59
2022/05/13 00:18:17;;;;;;;6.70;1.35;;;;;;;8.43;69.77;99455.45;1616834;85;21542;-60
2022/05/13 00:20:44;;;;;;;3.40;1.35;;;;;;;8.45;69.80;99451.05;1611834;87;21737;-60
2022/05/13 00:23:11;;;;;;;4.12;1.30;;;;;;;8.44;69.75;99457.17;1615409;86;21705;-60
2022/05/13 00:25:38;;;;;;;5.30;1.80;;;;;;;8.42;69.80;99462.88;1616962;87;20988;-60
2022/05/13 00:28:07;;;;;;;6.28;1.80;;;;;;;8.41;69.84;99462.50;1598590;88;21378;-60
2022/05/13 00:30:40;;;;;;;4.53;1.10;;;;;;;8.41;69.86;99452.94;1613110;87;21220;-60
2022/05/13 00:33:09;;;;;;;4.37;1.30;;;;;;;8.40;69.91;99461.66;1594809;88;21745;-60
2022/05/13 00:35:38;;;;;;;3.02;1.12;;;;;;;8.39;69.90;99461.72;1578133;89;21042;-60
2022/05/13 00:38:05;;;;;;;4.03;1.22;;;;;;;8.38;70.02;99462.61;1606133;87;21132;-59
2022/05/13 00:40:32;;;;;;;3.98;1.87;;;;;;;8.37;70.04;99458.30;1612020;87;20972;-60
2022/05/13 00:43:05;;;;;;;6.00;1.25;;;;;;;8.37;70.17;99454.39;1622803;87;21644;-60
2022/05/13 00:45:32;;;;;;;6.80;1.70;;;;;;;8.36;70.15;99454.02;1589738;88;21626;-59
2022/05/13 00:48:00;;;;;;;6.47;1.45;;;;;;;8.36;70.18;99456.61;1613983;86;22037;-59
2022/05/13 00:50:33;;;;;;;4.03;1.32;;;;;;;8.34;70.19;99453.22;1609371;87;21660;-59
2022/05/13 00:53:00;;;;;;;6.47;1.30;;;;;;;8.33;70.34;99456.28;1613900;85;21174;-60
2022/05/13 00:55:38;;;;;;;6.22;1.82;;;;;;;8.33;70.37;99445.04;1612232;86;21565;-60
2022/05/13 00:58:08;;;;;;;7.40;1.60;;;;;;;8.32;70.37;99449.83;1601184;87;21125;-60
2022/05/13 01:00:36;;;;;;;5.83;1.55;;;;;;;8.33;70.38;99444.58;1606716;86;21099;-61
2022/05/13 01:03:06;;;;;;;6.22;1.55;;;;;;;8.32;70.48;99450.70;1602688;86;21008;-60
2022/05/13 01:05:35;;;;;;;8.33;2.12;;;;;;;8.30;70.45;99439.52;1604398;86;21109;-59
2022/05/13 01:08:06;;;;;;;5.50;1.37;;;;;;;8.26;70.50;99454.41;1598802;86;21191;-60
2022/05/13 01:10:35;;;;;;;4.10;1.10;;;;;;;8.23;70.51;99446.73;1604526;86;21079;-61
2022/05/13 01:13:07;;;;;;;4.90;1.57;;;;;;;8.25;70.68;99457.90;1602314;86;21105;-60
2022/05/13 01:15:37;;;;;;;5.22;1.72;;;;;;;8.25;70.67;99457.06;1604867;86;21516;-62
2022/05/13 01:18:07;;;;;;;4.62;1.40;;;;;;;8.24;70.66;99456.22;1596883;87;21038;-60
2022/05/13 01:20:46;;;;;;;5.47;1.47;;;;;;;8.22;70.69;99457.19;1593868;87;21141;-60
2022/05/13 01:23:21;;;;;;;4.17;1.40;;;;;;;8.19;70.76;99450.36;1596813;87;21547;-61
2022/05/13 01:25:59;;;;;;;4.33;1.40;;;;;;;8.17;70.82;99448.27;1596012;87;21017;-60
2022/05/13 01:28:34;;;;;;;3.45;1.15;;;;;;;8.15;70.87;99454.02;1577253;88;21731;-60
2022/05/13 01:31:07;;;;;;;3.75;1.47;;;;;;;8.16;70.91;99450.48;1601411;87;21708;-60
2022/05/13 01:33:34;;;;;;;4.17;1.40;;;;;;;8.15;71.01;99454.44;1593122;87;21106;-60
2022/05/13 01:36:59;;;;;;;4.28;1.42;;;;;;;8.19;71.15;99447.77;1788505;77;22767;-59
2022/05/13 01:39:26;;;;;;;4.50;1.45;;;;;;;8.11;71.14;99451.13;1762256;80;20946;-61
2022/05/13 01:41:53;;;;;;;2.27;0.93;;;;;;;8.09;71.19;99454.24;1770380;80;21496;-60
2022/05/13 01:44:20;;;;;;;4.35;1.32;;;;;;;8.08;71.21;99442.16;1780058;78;21668;-61
2022/05/13 01:46:46;;;;;;;3.90;1.47;;;;;;;8.06;71.17;99445.27;1777884;80;20967;-61
2022/05/13 01:49:13;;;;;;;7.80;1.60;;;;;;;8.04;71.26;99440.61;1771586;79;20923;-60
2022/05/13 01:51:40;;;;;;;7.47;1.60;;;;;;;8.02;71.37;99441.12;1777677;80;21054;-60
2022/05/13 01:54:06;;;;;;;3.70;1.97;;;;;;;8.03;71.46;99441.50;1776768;80;21417;-60
2022/05/13 01:56:33;;;;;;;6.95;1.80;;;;;;;8.02;71.46;99441.95;1779368;80;21104;-60
2022/05/13 01:59:00;;;;;;;4.97;1.30;;;;;;;8.03;71.49;99437.14;1781746;80;21046;-61
2022/05/13 02:01:27;;;;;;;4.17;1.37;;;;;;;8.03;71.50;99437.59;1778457;80;21028;-61
2022/05/13 02:03:54;;;;;;;5.42;1.67;;;;;;;8.02;71.50;99439.81;1774389;78;21516;-60
2022/05/13 02:06:26;;;;;;;3.77;1.12;;;;;;;8.01;71.57;99438.11;1773440;80;22385;-61
2022/05/13 02:08:56;;;;;;;4.55;2.08;;;;;;;8.02;71.65;99439.81;1770953;80;20906;-60
2022/05/13 02:11:26;;;;;;;4.05;1.60;;;;;;;8.04;71.68;99445.81;1764092;80;21551;-60
2022/05/13 02:13:55;;;;;;;3.22;1.10;;;;;;;8.03;71.70;99446.23;1774961;80;21068;-60
2022/05/13 02:16:22;;;;;;;4.55;1.25;;;;;;;8.03;71.66;99436.30;1773644;80;21460;-60
2022/05/13 02:18:49;;;;;;;8.93;2.35;;;;;;;8.04;71.66;99438.02;1776356;80;21427;-60
2022/05/13 02:21:17;;;;;;;4.50;1.15;;;;;;;8.03;71.69;99441.50;1768726;80;21021;-60
2022/05/13 02:23:44;;;;;;;6.37;1.30;;;;;;;8.04;71.66;99444.52;1713140;82;21166;-61
2022/05/13 02:26:14;;;;;;;4.28;1.20;;;;;;;8.03;71.73;99453.20;1712324;81;21005;-61
2022/05/13 02:28:41;;;;;;;6.58;1.87;;;;;;;7.97;71.74;99444.36;1725179;82;21036;-60
2022/05/13 02:31:09;;;;;;;4.83;1.32;;;;;;;7.93;71.88;99454.50;1740297;81;21539;-60
2022/05/13 02:33:37;;;;;;;7.50;1.60;;;;;;;7.87;71.90;99453.43;1742613;81;21169;-60
2022/05/13 02:36:06;;;;;;;6.75;1.27;;;;;;;7.81;71.94;99455.39;1739054;81;21076;-60
2022/05/13 02:38:33;;;;;;;5.70;1.30;;;;;;;7.78;72.01;99448.15;1725647;81;21044;-60
2022/05/13 02:41:13;;;;;;;4.40;1.30;;;;;;;7.74;72.07;99452.63;1734215;81;21110;-60
2022/05/13 02:43:53;;;;;;;4.45;1.40;;;;;;;7.72;72.11;99438.84;1711059;83;22193;-61
2022/05/13 02:46:27;;;;;;;5.00;1.20;;;;;;;7.73;72.18;99441.86;1738651;81;21034;-61
2022/05/13 02:48:54;;;;;;;9.05;1.40;;;;;;;7.72;72.20;99433.64;1727226;81;21098;-60
2022/05/13 02:51:22;;;;;;;6.22;1.45;;;;;;;7.76;72.24;99440.43;1730522;81;20955;-60
2022/05/13 02:53:49;;;;;;;4.92;1.35;;;;;;;7.80;72.31;99443.28;1733280;81;21738;-61
2022/05/13 02:56:16;;;;;;;7.97;2.00;;;;;;;7.80;72.31;99448.48;1740787;81;21416;-60
2022/05/13 02:58:43;;;;;;;4.60;1.27;;;;;;;7.80;72.29;99445.88;1735260;81;28363;-61
2022/05/13 03:01:12;;;;;;;5.93;1.77;;;;;;;7.82;72.38;99447.97;1723174;81;21257;-60
2022/05/13 03:03:43;;;;;;;11.68;2.22;;;;;;;7.85;72.40;99451.75;1739844;81;21633;-60
2022/05/13 03:06:10;;;;;;;7.35;1.60;;;;;;;7.91;72.47;99444.61;1728038;81;21136;-60
2022/05/13 03:08:40;;;;;;;7.55;1.12;;;;;;;7.97;72.46;99444.36;1737930;81;21750;-60
2022/05/13 03:11:11;;;;;;;6.28;1.22;;;;;;;8.02;72.48;99439.36;1723246;81;21533;-60
2022/05/13 03:13:38;;;;;;;6.80;2.27;;;;;;;8.18;72.77;99438.28;1746319;81;21020;-60
2022/05/13 03:16:17;;;;;;;21.02;3.58;;;;;;;8.69;73.14;99430.93;1733700;81;21958;-60
2022/05/13 03:18:44;;;;;;;39.45;2.92;;;;;;;9.30;73.11;99431.19;1725872;82;20915;-60
2022/05/13 03:21:11;;;;;;;26.80;4.50;;;;;;;9.96;72.86;99426.27;1730432;81;21989;-60
2022/05/13 03:23:42;;;;;;;8.68;1.75;;;;;;;10.55;72.64;99433.33;1728842;80;21546;-60
2022/05/13 03:26:07;;;;;;;15.10;2.30;;;;;;;11.21;72.75;99425.92;1728497;81;21012;-60
2022/05/13 03:28:34;;;;;;;9.68;1.77;;;;;;;11.91;72.26;99426.87;1734530;81;21555;-60
2022/05/13 03:31:01;;;;;;;6.70;1.50;;;;;;;12.48;72.09;99424.38;1741352;81;21101;-60
2022/05/13 03:33:28;;;;;;;5.00;2.10;;;;;;;13.06;71.71;99428.69;1731242;81;21607;-60
2022/05/13 03:35:55;;;;;;;8.50;1.92;;;;;;;13.74;71.80;99424.42;1731096;81;21010;-60
2022/05/13 03:38:21;;;;;;;9.55;1.72;;;;;;;14.39;71.51;99422.30;1716393;81;21112;-62
2022/05/13 03:40:49;;;;;;;6.00;1.07;;;;;;;15.07;71.06;99411.92;1732584;81;21026;-61
2022/05/13 03:43:16;;;;;;;4.33;1.30;;;;;;;15.64;70.62;99411.33;1736345;81;22121;-61
2022/05/13 03:45:43;;;;;;;;;;;;;;;16.07;70.09;99413.44;1734673;81;21108;-62
2022/05/13 03:48:14;;;;;;;9.43;1.37;;;;;;;16.49;69.30;99411.14;1729245;81;20205;-61
2022/05/13 03:50:44;;;;;;;18.82;2.25;;;;;;;16.98;69.29;99404.73;1720541;81;20957;-61
2022/05/13 03:53:11;;;;;;;9.05;1.70;;;;;;;17.65;69.28;99404.60;1724730;81;20990;-62
2022/05/13 03:55:37;;;;;;;9.70;1.50;;;;;;;18.35;69.14;99406.34;1721679;81;21025;-62
2022/05/13 03:58:05;;;;;;;16.55;2.52;;;;;;;19.03;68.59;99396.60;1727801;82;21225;-62
2022/05/13 04:00:32;;;;;;;4.78;1.70;;;;;;;19.59;68.25;99396.02;1722248;82;21057;-62
2022/05/13 04:03:00;;;;;;;6.22;1.98;;;;;;;20.02;67.58;99392.14;1723020;82;21531;-62
2022/05/13 04:10:58;;;;;;;23.07;2.50;;;;;;;21.03;66.22;99397.75;1665858;82;21657;-63
2022/05/13 04:16:11;;;;;;;3.22;1.67;;;;;;;22.15;64.72;99400.05;1647357;84;21166;-62
2022/05/13 04:18:43;;;;;;;6.22;1.70;;;;;;;22.36;64.03;99395.27;1641544;85;21140;-62
2022/05/13 04:21:18;;;;;;;58.60;5.42;;;;;;;22.66;63.56;99393.09;1641980;85;21041;-62
2022/05/13 04:23:48;;;;;;;13.35;2.02;;;;;;;22.77;63.21;99395.52;1643607;85;21562;-63
2022/05/13 04:26:16;;;;;;;9.00;1.40;;;;;;;23.03;62.33;99394.66;1671550;84;21009;-63
2022/05/13 04:28:45;;;;;;;24.98;2.80;;;;;;;23.21;61.96;99398.03;1675041;84;21098;-64
2022/05/13 04:31:13;;;;;;;5.50;1.50;;;;;;;23.65;61.86;99395.15;1699997;82;21073;-64
2022/05/13 04:33:42;;;;;;;33.80;4.72;;;;;;;23.86;60.80;99405.35;1706863;82;21083;-63
2022/05/13 04:36:09;;;;;;;6.67;1.92;;;;;;;23.57;59.71;99403.12;1704154;82;21134;-63
2022/05/13 04:38:36;;;;;;;12.45;1.90;;;;;;;23.68;59.56;99408.97;1700028;82;21087;-63
2022/05/13 04:43:51;;;;;;;7.85;1.77;;;;;;;23.93;58.68;99405.03;1707161;82;21042;-64
2022/05/13 04:46:18;;;;;;;10.25;1.87;;;;;;;23.98;58.33;99405.88;1702964;82;21130;-63
2022/05/13 04:48:50;;;;;;;9.45;1.95;;;;;;;24.15;57.74;99407.54;1701113;82;21096;-63
2022/05/13 04:51:14;;;;;;;6.40;1.57;;;;;;;24.28;57.27;99402.54;1705428;82;20994;-64
2022/05/13 04:53:41;;;;;;;7.40;2.00;;;;;;;24.67;56.89;99403.13;1702498;82;21276;-64
2022/05/13 04:56:09;;;;;;;7.45;1.57;;;;;;;24.66;56.46;99410.83;1706192;82;21509;-63
2022/05/13 04:58:38;;;;;;;13.65;2.20;;;;;;;24.60;55.37;99411.52;1706184;82;20964;-64
2022/05/13 05:01:07;;;;;;;3.10;1.32;;;;;;;24.40;55.11;99418.20;1701963;82;21134;-63
2022/05/13 05:03:38;;;;;;;6.03;1.62;;;;;;;24.36;54.36;99415.02;1705158;82;21132;-64
2022/05/13 05:06:05;;;;;;;4.05;1.60;;;;;;;24.44;54.08;99411.53;1703648;82;21013;-63
2022/05/13 05:08:53;;;;;;;11.85;1.77;;;;;;;24.64;53.79;99414.16;1717852;82;21099;-61
2022/05/13 05:11:20;;;;;;;14.47;2.80;;;;;;;25.02;53.69;99423.73;1710274;83;21636;-62
2022/05/13 05:13:50;;;;;;;6.47;1.67;;;;;;;25.22;52.80;99424.18;1687359;84;21448;-62
2022/05/13 05:16:22;;;;;;;3.77;1.32;;;;;;;25.27;51.99;99418.33;1720593;82;21375;-64
2022/05/13 05:18:47;;;;;;;7.17;1.87;;;;;;;24.33;51.04;99424.19;1728188;82;21618;-64
2022/05/13 05:21:14;;;;;;;4.72;1.62;;;;;;;23.99;50.02;99427.54;1723537;81;20947;-63
2022/05/13 05:23:44;;;;;;;13.03;2.35;;;;;;;23.14;49.94;99431.65;1737463;81;21107;-64
2022/05/13 05:26:11;;;;;;;6.10;1.80;;;;;;;22.41;49.93;99425.39;1729212;81;21070;-63
2022/05/13 05:28:41;;;;;;;31.23;3.30;;;;;;;22.13;49.14;99422.33;1737354;81;21028;-63
2022/05/13 05:31:11;;;;;;;6.35;1.72;;;;;;;22.09;50.05;99428.09;1737689;81;21630;-63
2022/05/13 05:33:38;;;;;;;45.48;22.40;;;;;;;22.57;49.53;99429.47;1729985;81;21057;-63
2022/05/13 05:36:06;;;;;;;61.58;37.05;;;;;;;23.06;48.76;99420.96;1733753;81;20953;-63
2022/05/13 05:38:33;;;;;;;7.67;3.30;;;;;;;22.74;48.46;99425.08;1732097;81;21048;-63
2022/05/13 05:41:02;;;;;;;9.75;2.08;;;;;;;22.38;48.18;99423.02;1739550;81;21140;-63
2022/05/13 05:43:29;;;;;;;4.22;1.60;;;;;;;22.32;48.18;99429.33;1735882;81;21017;-63
2022/05/13 05:45:59;;;;;;;13.90;2.20;;;;;;;22.23;48.10;99429.40;1735950;81;21595;-64
2022/05/13 05:48:26;;;;;;;7.03;1.82;;;;;;;22.22;47.23;99429.90;1739747;79;21091;-63
2022/05/13 05:50:56;;;;;;;30.88;3.90;;;;;;;21.30;47.36;99431.43;1734548;81;21577;-63
2022/05/13 05:58:58;;;;;;;6.08;1.60;;;;;;;21.16;47.35;99436.24;1738307;81;21576;-61
2022/05/13 06:01:27;;;;;;;22.20;4.10;;;;;;;21.22;47.54;99426.85;1734091;81;21059;-61
2022/05/13 06:03:54;;;;;;;24.95;2.83;;;;;;;21.55;47.45;99424.60;1739829;81;21932;-62
2022/05/13 06:06:21;;;;;;;5.65;1.70;;;;;;;21.65;46.95;99418.24;1738127;81;21059;-61
2022/05/13 06:08:49;;;;;;;7.75;2.00;;;;;;;21.97;47.32;99432.81;1733652;81;21082;-61
2022/05/13 06:11:23;;;;;;;5.75;1.50;;;;;;;22.06;46.75;99426.57;1736368;81;21506;-63
2022/05/13 06:13:58;;;;;;;7.33;1.62;;;;;;;22.18;46.80;99426.36;1723268;81;21029;-62
2022/05/13 06:16:28;;;;;;;34.27;2.95;;;;;;;22.18;46.60;99415.73;1742388;81;21263;-61
2022/05/13 06:18:58;;;;;;;7.05;2.17;;;;;;;22.24;45.84;99430.59;1727135;81;21636;-63
2022/05/13 06:21:23;;;;;;;3.67;1.32;;;;;;;21.55;46.11;99430.74;1728936;81;21100;-63
2022/05/13 06:23:50;;;;;;;19.50;2.58;;;;;;;21.29;46.07;99428.44;1734030;81;21067;-63
2022/05/13 06:26:17;;;;;;;;;;;;;;;21.27;46.23;99427.25;1739676;81;22058;-63
2022/05/13 06:28:44;;;;;;;10.18;2.20;;;;;;;20.94;45.85;99428.66;1728912;81;21075;-64
2022/05/13 06:31:11;;;;;;;17.80;2.85;;;;;;;20.75;46.02;99431.75;1739427;81;21098;-64
2022/05/13 06:33:37;;;;;;;22.60;3.12;;;;;;;20.58;46.08;99422.36;1728095;81;21004;-63
2022/05/13 06:36:04;;;;;;;7.45;1.75;;;;;;;20.57;46.29;99426.83;1733934;80;21118;-63
2022/05/13 06:38:31;;;;;;;32.65;2.90;;;;;;;20.75;46.14;99428.23;1741687;81;21716;-64
2022/05/13 06:40:57;;;;;;;;;;;;;;;20.87;46.21;99425.77;1734061;81;21403;-64
2022/05/13 06:43:24;;;;;;;4.53;1.62;;;;;;;20.90;46.11;99425.47;1739128;79;20269;-63
2022/05/13 06:45:51;;;;;;;;;;;;;;;21.09;46.11;99424.56;1731636;81;21018;-62
2022/05/13 06:48:18;;;;;;;33.35;3.10;;;;;;;21.27;46.06;99423.77;1738256;81;20190;-62
2022/05/13 06:50:46;;;;;;;13.90;1.87;;;;;;;21.11;45.76;99413.28;1738107;80;21020;-63
2022/05/13 06:53:16;;;;;;;13.53;2.45;;;;;;;21.19;45.90;99420.02;1730504;81;21427;-62
2022/05/13 06:55:45;;;;;;;14.75;2.58;;;;;;;21.48;46.22;99405.75;1737558;81;22094;-62
2022/05/13 06:58:13;;;;;;;6.05;1.52;;;;;;;21.66;45.73;99421.23;1729871;81;21017;-62
2022/05/13 07:00:40;;;;;;;25.72;3.27;;;;;;;21.34;44.73;99416.86;1734125;81;20961;-63
2022/05/13 07:03:16;;;;;;;76.80;7.12;;;;;;;20.68;44.84;99413.39;1732962;81;21038;-63
2022/05/13 07:05:47;;;;;;;12.23;1.70;;;;;;;20.62;45.30;99406.02;1731097;81;21012;-62
2022/05/13 07:08:14;;;;;;;53.20;4.37;;;;;;;20.62;44.53;99411.33;1732197;81;20929;-61
2022/05/13 07:10:42;;;;;;;11.70;1.90;;;;;;;20.12;44.83;99411.53;1735618;81;21526;-62
2022/05/13 07:13:12;;;;;;;8.85;1.80;;;;;;;20.26;45.21;99412.91;1733373;81;21033;-62
2022/05/13 07:15:39;;;;;;;5.10;1.67;;;;;;;20.63;45.20;99412.16;1740727;81;21317;-63
2022/05/13 07:18:07;;;;;;;16.32;1.80;;;;;;;20.40;44.66;99406.33;1729287;81;21574;-62
2022/05/13 07:20:33;;;;;;;8.50;2.00;;;;;;;20.20;44.79;99406.36;1734457;81;21565;-62
2022/05/13 07:23:00;;;;;;;25.05;2.42;;;;;;;19.90;44.53;99403.38;1735266;81;21688;-63
2022/05/13 07:25:27;;;;;;;13.93;2.15;;;;;;;19.45;44.73;99399.91;1739962;81;21047;-63
2022/05/13 07:27:54;;;;;;;3.90;1.10;;;;;;;19.26;44.81;99407.80;1734963;81;21672;-63
2022/05/13 07:30:21;;;;;;;10.45;1.40;;;;;;;19.24;44.83;99411.92;1730845;81;21091;-65
2022/05/13 07:32:48;;;;;;;;;;;;;;;19.22;44.89;99405.43;1729074;81;21005;-62
2022/05/13 07:35:14;;;;;;;3.75;1.22;;;;;;;19.17;44.72;99403.67;1730553;81;20189;-62
2022/05/13 07:37:42;;;;;;;2.62;0.90;;;;;;;19.34;45.22;99415.91;1735079;81;21601;-62
2022/05/13 07:42:54;;;;;;;;;;;;;;;19.24;44.41;99413.25;1711832;82;21110;-62
2022/05/13 07:45:21;;;;;;;10.23;1.10;;;;;;;19.21;44.67;99406.41;1713045;82;20106;-61
2022/05/13 07:47:48;;;;;;;8.58;1.57;;;;;;;19.24;44.33;99410.60;1681043;83;21012;-62
2022/05/13 07:50:15;;;;;;;;;;;;;;;19.29;44.45;99404.88;1676258;83;21108;-62
2022/05/13 07:52:43;;;;;;;6.95;1.30;;;;;;;19.31;43.92;99405.09;1709106;81;20447;-62
2022/05/13 07:55:15;;;;;;;6.17;1.22;;;;;;;19.25;44.21;99413.59;1710658;83;21127;-62
2022/05/13 07:57:44;;;;;;;3.35;0.98;;;;;;;19.39;44.19;99395.99;1704963;81;21620;-62
2022/05/13 08:00:27;;;;;;;17.42;1.85;;;;;;;19.42;43.98;99403.66;1713259;81;21133;-62
2022/05/13 08:03:11;;;;;;;19.02;3.20;;;;;;;19.43;43.62;99400.03;1705649;83;21094;-62
2022/05/13 08:05:45;;;;;;;10.05;1.85;;;;;;;19.38;43.28;99391.69;1710232;83;21054;-62
2022/05/13 08:08:30;;;;;;;4.03;1.00;;;;;;;19.34;43.55;99400.85;1705272;83;21149;-63
2022/05/13 08:11:01;;;;;;;3.55;1.02;;;;;;;19.40;43.28;99400.30;1712936;81;21030;-63
2022/05/13 08:13:31;;;;;;;7.37;1.20;;;;;;;19.12;42.83;99399.75;1721305;82;21106;-63
2022/05/13 08:15:59;;;;;;;34.98;2.12;;;;;;;19.19;43.45;99399.58;1718638;82;21042;-62
2022/05/13 08:18:26;;;;;;;3.92;1.22;;;;;;;19.53;43.47;99400.55;1707255;82;21662;-62
2022/05/13 08:20:53;;;;;;;;;;;;;;;19.85;43.26;99399.81;1713502;83;21121;-63
2022/05/13 08:23:21;;;;;;;3.83;1.12;;;;;;;20.19;43.10;99403.34;1710482;82;20235;-62
2022/05/13 08:25:49;;;;;;;6.17;1.47;;;;;;;20.24;42.98;99401.60;1711136;83;21128;-64
2022/05/13 08:28:19;;;;;;;53.75;5.30;;;;;;;20.22;42.88;99405.73;1709488;82;21706;-62
2022/05/13 08:30:46;;;;;;;6.08;1.10;;;;;;;20.32;42.80;99409.69;1719187;81;20975;-62
2022/05/13 08:33:14;;;;;;;6.12;1.17;;;;;;;20.26;42.17;99400.48;1721675;81;21080;-62
2022/05/13 08:35:48;;;;;;;12.82;2.08;;;;;;;20.03;42.28;99383.23;1713787;81;21094;-62
2022/05/13 08:38:19;;;;;;;14.33;1.40;;;;;;;19.78;41.64;99398.72;1714572;83;21628;-60
2022/05/13 08:41:12;;;;;;;5.05;1.40;;;;;;;19.30;41.58;99399.47;1722193;81;21023;-61
2022/05/13 08:43:53;;;;;;;8.13;1.40;;;;;;;18.78;41.35;99396.08;1704476;82;21146;-62
2022/05/13 08:46:39;;;;;;;4.05;1.10;;;;;;;18.47;41.65;99405.30;1704229;82;21192;-61
2022/05/13 08:49:46;;;;;;;10.67;1.50;;;;;;;18.40;41.61;99402.84;1717153;82;21053;-61
2022/05/13 08:55:38;;;;;;;1.57;0.90;;;;;;;18.04;41.58;99404.95;1707081;83;21050;-61
2022/05/13 08:58:11;;;;;;;4.78;1.10;;;;;;;18.06;41.61;99409.64;1713499;82;21064;-60
2022/05/13 09:00:50;;;;;;;4.87;1.22;;;;;;;18.09;41.71;99410.70;1715515;83;21134;-62
2022/05/13 09:03:44;;;;;;;4.92;1.12;;;;;;;18.19;41.76;99401.99;1714024;83;21043;-61
2022/05/13 09:06:16;;;;;;;24.40;2.40;;;;;;;18.29;41.57;99402.91;1704732;83;21523;-61
2022/05/13 09:08:43;;;;;;;4.25;1.15;;;;;;;18.36;41.67;99398.76;1713303;83;21014;-61
2022/05/13 09:11:33;;;;;;;4.70;1.32;;;;;;;18.28;41.50;99402.05;1711793;83;21102;-61
2022/05/13 09:14:21;;;;;;;13.68;1.85;;;;;;;18.27;41.43;99403.02;1712882;82;21128;-61
2022/05/13 09:17:21;;;;;;;14.20;1.90;;;;;;;18.02;41.55;99400.27;1715323;82;21485;-62
2022/05/13 09:19:58;;;;;;;17.37;1.50;;;;;;;18.01;41.54;99393.33;1653150;84;21231;-61
2022/05/13 09:22:42;;;;;;;12.40;2.12;;;;;;;18.20;41.56;99398.37;1617699;87;21141;-61
2022/05/13 09:25:30;;;;;;;48.15;3.83;;;;;;;18.41;41.85;99393.92;1635534;86;21147;-61
2022/05/13 09:28:09;;;;;;;43.52;4.65;;;;;;;18.89;41.91;99385.41;1638740;85;21167;-61
2022/05/13 09:30:40;;;;;;;17.77;1.98;;;;;;;19.10;41.33;99372.12;1633892;86;21127;-61
2022/05/13 09:33:38;;;;;;;5.42;1.45;;;;;;;18.94;41.36;99380.56;1632726;85;21636;-61
2022/05/13 09:36:09;;;;;;;6.30;1.20;;;;;;;18.63;41.15;99390.78;1631580;87;21091;-60
2022/05/13 09:38:50;;;;;;;3.75;0.98;;;;;;;18.32;40.65;99388.11;1591744;87;21101;-62
2022/05/13 09:41:30;;;;;;;2.55;1.07;;;;;;;17.38;40.94;99406.83;1655178;85;21116;-61
2022/05/13 09:44:08;;;;;;;3.37;1.00;;;;;;;16.42;42.34;99399.41;1655526;84;21132;-60
2022/05/13 09:46:51;;;;;;;4.90;1.07;;;;;;;16.11;42.30;99404.38;1636188;87;21153;-61
2022/05/13 09:49:26;;;;;;;3.42;1.12;;;;;;;16.10;42.28;99406.17;1633710;85;21563;-61
2022/05/13 09:51:59;;;;;;;3.75;1.60;;;;;;;15.99;42.59;99401.33;1702890;84;21036;-61
2022/05/13 09:54:33;;;;;;;6.60;1.47;;;;;;;15.93;42.85;99399.16;1722615;82;21074;-62
2022/05/13 09:57:14;;;;;;;2.90;1.17;;;;;;;16.23;43.13;99390.27;1718900;82;21011;-62
2022/05/13 10:00:01;;;;;;;6.78;1.20;;;;;;;16.60;43.23;99396.66;1650351;84;21320;-60
2022/05/13 10:02:36;;;;;;;4.33;1.27;;;;;;;16.90;43.22;99391.31;1656692;84;21118;-61
2022/05/13 10:05:25;;;;;;;3.75;0.60;;;;;;;17.31;43.56;99389.80;1656985;84;21021;-61
2022/05/13 10:07:57;;;;;;;4.15;0.95;;;;;;;17.62;43.49;99392.14;1661519;84;21083;-61
2022/05/13 10:16:30;;;;;;;2.27;0.80;;;;;;;16.95;43.38;99393.12;1680115;84;21124;-60
2022/05/13 10:19:20;;;;;;;9.23;1.30;;;;;;;16.99;43.62;99393.22;1673985;84;21797;-62
2022/05/13 10:22:07;;;;;;;5.40;0.98;;;;;;;17.11;43.55;99381.72;1673675;84;21779;-61
2022/05/13 10:24:51;;;;;;;3.08;1.30;;;;;;;17.57;44.09;99383.27;1675800;84;21142;-61
2022/05/13 10:27:29;;;;;;;37.17;4.33;;;;;;;17.87;43.65;99372.02;1678958;83;21124;-62
2022/05/13 10:30:01;;;;;;;10.95;1.67;;;;;;;18.15;43.71;99364.89;1666240;84;21103;-62
2022/05/13 10:33:49;;;;;;;8.93;1.30;;;;;;;18.78;43.92;99361.21;1829332;76;22712;-63
2022/05/13 10:36:56;;;;;;;5.30;1.65;;;;;;;19.10;43.62;99358.03;1818477;78;21063;-61
2022/05/13 10:39:44;;;;;;;12.35;1.62;;;;;;;18.73;42.27;99364.70;1817103;78;21633;-61
2022/05/13 10:42:37;;;;;;;5.20;1.20;;;;;;;18.42;42.92;99358.58;1818767;78;21007;-60
2022/05/13 10:45:22;;;;;;;13.32;1.45;;;;;;;18.19;42.75;99368.96;1752379;81;21053;-62
2022/05/13 10:48:01;;;;;;;21.23;2.37;;;;;;;18.26;42.74;99374.06;1751736;81;21144;-60
2022/05/13 10:50:36;;;;;;;15.98;2.05;;;;;;;18.69;42.69;99357.19;1723460;82;21619;-62
2022/05/13 10:53:29;;;;;;;10.75;1.30;;;;;;;18.96;42.50;99364.08;1746714;81;21130;-62
2022/05/13 10:56:16;;;;;;;3.08;1.10;;;;;;;19.12;42.07;99356.09;1735124;81;21092;-62
2022/05/13 10:59:05;;;;;;;5.05;1.07;;;;;;;19.08;41.67;99361.32;1753393;81;20970;-61
2022/05/13 11:02:07;;;;;;;41.55;2.85;;;;;;;18.82;41.32;99356.97;1718991;82;21093;-62
2022/05/13 11:04:50;;;;;;;5.22;1.25;;;;;;;18.48;41.22;99372.59;1722407;82;21139;-60
2022/05/13 11:07:32;;;;;;;2.75;1.10;;;;;;;18.07;40.91;99366.39;1729613;81;21092;-61
2022/05/13 11:10:19;;;;;;;5.60;1.05;;;;;;;17.49;39.50;99369.86;1733345;81;21366;-61
2022/05/13 11:15:04;;;;;;;7.55;1.15;;;;;;;16.67;40.56;99372.84;1849296;76;22653;-60
2022/05/13 11:17:54;;;;;;;4.55;1.27;;;;;;;16.57;40.58;99379.77;1817292;77;21054;-62
2022/05/13 11:20:41;;;;;;;5.78;1.32;;;;;;;16.40;40.60;99382.88;1820054;77;21061;-60
2022/05/13 11:23:26;;;;;;;1.95;0.80;;;;;;;16.23;40.62;99369.19;1819317;78;21006;-61
2022/05/13 11:26:23;;;;;;;8.08;1.47;;;;;;;16.38;40.77;99378.19;1818848;78;20990;-62
2022/05/13 11:29:06;;;;;;;2.15;1.10;;;;;;;16.46;40.83;99379.76;1807584;77;21042;-62
2022/05/13 11:31:44;;;;;;;10.93;1.05;;;;;;;16.39;40.71;99378.57;1813021;78;20951;-60
2022/05/13 11:35:06;;;;;;;4.62;1.30;;;;;;;16.40;40.88;99365.75;1812251;77;21448;-61
2022/05/13 11:37:37;;;;;;;6.75;1.32;;;;;;;16.59;41.16;99372.59;1811973;77;20936;-60
2022/05/13 11:40:30;;;;;;;4.22;1.20;;;;;;;16.87;40.73;99381.02;1816669;77;20999;-62
2022/05/13 11:43:20;;;;;;;5.60;1.22;;;;;;;16.80;40.53;99371.89;1811405;77;20953;-62
2022/05/13 11:46:27;;;;;;;5.95;1.27;;;;;;;16.65;40.72;99368.16;1810338;77;21648;-61
2022/05/13 11:49:29;;;;;;;3.35;1.37;;;;;;;16.87;40.43;99367.83;1810405;77;21720;-62
2022/05/13 11:52:06;;;;;;;10.05;1.20;;;;;;;16.81;40.64;99363.05;1812823;76;20889;-61
2022/05/13 11:54:32;;;;;;;2.30;1.00;;;;;;;16.61;40.61;99360.14;1751695;79;21096;-61
2022/05/13 11:57:29;;;;;;;2.35;0.95;;;;;;;16.76;40.72;99358.95;1761925;79;21565;-61
2022/05/13 12:00:34;;;;;;;6.10;1.02;;;;;;;17.03;40.65;99372.70;1716081;81;21037;-60
2022/05/13 12:03:12;;;;;;;4.05;1.40;;;;;;;17.20;40.39;99362.50;1682206;83;21130;-61
2022/05/13 12:06:07;;;;;;;2.58;0.85;;;;;;;17.44;40.68;99361.47;1681498;84;21186;-61
2022/05/13 12:08:45;;;;;;;3.58;1.05;;;;;;;17.49;40.53;99359.30;1673490;84;21693;-62
2022/05/13 12:11:51;;;;;;;4.50;1.50;;;;;;;17.51;40.15;99363.98;1677598;84;21681;-62
2022/05/13 12:14:28;;;;;;;2.87;1.10;;;;;;;17.46;40.68;99362.19;1681674;84;21083;-61
2022/05/13 12:17:33;;;;;;;12.23;2.17;;;;;;;17.77;40.63;99359.67;1674511;84;21153;-61
2022/05/13 12:20:31;;;;;;;11.22;1.85;;;;;;;17.76;40.52;99366.76;1674415;82;21041;-61
2022/05/13 12:23:23;;;;;;;6.03;1.55;;;;;;;17.76;40.58;99370.72;1683000;84;21160;-62
2022/05/13 12:26:09;;;;;;;8.43;1.00;;;;;;;17.78;40.46;99374.53;1671601;84;21132;-62
2022/05/13 12:28:50;;;;;;;2.75;0.80;;;;;;;17.74;40.44;99373.12;1673381;84;21141;-62
2022/05/13 12:31:32;;;;;;;11.05;2.25;;;;;;;17.74;40.61;99371.81;1670770;84;21144;-61
2022/05/13 12:39:57;;;;;;;7.35;1.82;;;;;;;17.40;40.42;99372.77;1778122;78;20998;-61
2022/05/13 12:42:50;;;;;;;16.82;2.05;;;;;;;17.54;40.47;99376.92;1757366;80;21058;-61
2022/05/13 12:45:41;;;;;;;4.90;1.37;;;;;;;17.66;40.55;99373.27;1790719;79;22245;-61